createdAt,value
2023-02-14T00:00:23.884Z,955.44
2023-02-14T00:01:23.881Z,955.35
2023-02-14T00:02:23.957Z,955.37
2023-02-14T00:03:23.870Z,955.33
2023-02-14T00:04:23.870Z,955.33
2023-02-14T00:05:23.827Z,955.34
2023-02-14T00:06:23.822Z,955.33
2023-02-14T00:07:23.831Z,955.32
2023-02-14T00:08:23.809Z,955.35
2023-02-14T00:09:23.824Z,955.37
2023-02-14T00:10:23.787Z,955.40
2023-02-14T00:11:23.772Z,955.34
2023-02-14T00:12:23.782Z,955.37
2023-02-14T00:13:23.751Z,955.37
2023-02-14T00:14:23.772Z,955.34
2023-02-14T00:15:23.830Z,955.36
2023-02-14T00:16:23.871Z,955.31
2023-02-14T00:17:23.759Z,955.37
2023-02-14T00:18:23.718Z,955.32
2023-02-14T00:19:23.707Z,955.33
2023-02-14T00:20:23.739Z,955.32
2023-02-14T00:21:23.700Z,955.34
2023-02-14T00:22:23.683Z,955.34
2023-02-14T00:23:23.680Z,955.33
2023-02-14T00:24:23.684Z,955.31
2023-02-14T00:25:23.648Z,955.33
2023-02-14T00:26:23.657Z,955.29
2023-02-14T00:27:23.625Z,955.28
2023-02-14T00:28:23.636Z,955.35
2023-02-14T00:29:23.624Z,955.33
2023-02-14T00:30:23.623Z,955.31
2023-02-14T00:31:23.773Z,955.32
2023-02-14T00:32:23.632Z,955.34
2023-02-14T00:33:23.551Z,955.33
2023-02-14T00:34:23.558Z,955.34
2023-02-14T00:35:23.530Z,955.29
2023-02-14T00:36:23.531Z,955.28
2023-02-14T00:37:23.529Z,955.30
2023-02-14T00:38:23.535Z,955.32
2023-02-14T00:39:23.530Z,955.37
2023-02-14T00:40:23.523Z,955.40
2023-02-14T00:41:23.477Z,955.42
2023-02-14T00:42:23.462Z,955.45
2023-02-14T00:43:23.464Z,955.49
2023-02-14T00:44:23.475Z,955.49
2023-02-14T00:45:23.455Z,955.52
2023-02-14T00:46:23.424Z,955.58
2023-02-14T00:47:23.449Z,955.54
2023-02-14T00:48:23.401Z,955.55
2023-02-14T00:49:23.398Z,955.53
2023-02-14T00:50:23.382Z,955.56
2023-02-14T00:51:23.403Z,955.60
2023-02-14T00:52:23.380Z,955.60
2023-02-14T00:53:23.352Z,955.64
2023-02-14T00:54:23.351Z,955.69
2023-02-14T00:55:23.370Z,955.63
2023-02-14T00:56:23.354Z,955.65
2023-02-14T00:57:23.344Z,955.62
2023-02-14T00:58:23.308Z,955.64
2023-02-14T00:59:23.299Z,955.60
2023-02-14T01:00:23.288Z,955.59
2023-02-14T01:01:23.369Z,955.64
2023-02-14T01:02:23.300Z,955.60
2023-02-14T01:03:23.306Z,955.59
2023-02-14T01:04:23.248Z,955.59
2023-02-14T01:05:24.210Z,955.61
2023-02-14T01:06:23.228Z,955.62
2023-02-14T01:07:23.735Z,955.66
2023-02-14T01:08:23.212Z,955.66
2023-02-14T01:09:23.203Z,955.65
2023-02-14T01:10:23.238Z,955.62
2023-02-14T01:11:23.214Z,955.65
2023-02-14T01:12:23.192Z,955.57
2023-02-14T01:13:23.153Z,955.59
2023-02-14T01:14:23.155Z,955.59
2023-02-14T01:15:23.193Z,955.56
2023-02-14T01:16:23.218Z,955.54
2023-02-14T01:17:23.147Z,955.52
2023-02-14T01:18:23.109Z,955.53
2023-02-14T01:19:23.093Z,955.54
2023-02-14T01:20:23.095Z,955.51
2023-02-14T01:21:23.081Z,955.51
2023-02-14T01:22:23.123Z,955.53
2023-02-14T01:23:23.056Z,955.54
2023-02-14T01:24:23.094Z,955.51
2023-02-14T01:25:23.045Z,955.53
2023-02-14T01:26:23.033Z,955.52
2023-02-14T01:27:23.032Z,955.54
2023-02-14T01:28:22.999Z,955.55
2023-02-14T01:29:23.000Z,955.56
2023-02-14T01:30:23.056Z,955.55
2023-02-14T01:31:23.086Z,955.56
2023-02-14T01:32:23.022Z,955.55
2023-02-14T01:33:22.996Z,955.55
2023-02-14T01:34:22.976Z,955.57
2023-02-14T01:35:23.721Z,955.50
2023-02-14T01:36:22.926Z,955.52
2023-02-14T01:37:22.923Z,955.49
2023-02-14T01:38:22.950Z,955.52
2023-02-14T01:39:22.903Z,955.45
2023-02-14T01:40:22.883Z,955.45
2023-02-14T01:41:22.886Z,955.47
2023-02-14T01:42:22.874Z,955.47
2023-02-14T01:43:22.894Z,955.44
2023-02-14T01:44:22.876Z,955.41
2023-02-14T01:45:22.851Z,955.44
2023-02-14T01:46:22.834Z,955.46
2023-02-14T01:47:22.821Z,955.48
2023-02-14T01:48:22.821Z,955.48
2023-02-14T01:49:22.823Z,955.49
2023-02-14T01:50:22.825Z,955.50
2023-02-14T01:51:22.822Z,955.48
2023-02-14T01:52:22.801Z,955.51
2023-02-14T01:53:23.257Z,955.47
2023-02-14T01:54:22.757Z,955.50
2023-02-14T01:55:22.745Z,955.49
2023-02-14T01:56:22.728Z,955.44
2023-02-14T01:57:22.735Z,955.47
2023-02-14T01:58:22.726Z,955.46
2023-02-14T01:59:22.748Z,955.46
2023-02-14T02:00:22.691Z,955.44
2023-02-14T02:01:22.730Z,955.46
2023-02-14T02:02:22.737Z,955.49
2023-02-14T02:03:22.707Z,955.52
2023-02-14T02:04:22.661Z,955.48
2023-02-14T02:05:22.653Z,955.54
2023-02-14T02:06:22.652Z,955.53
2023-02-14T02:07:22.646Z,955.57
2023-02-14T02:08:22.657Z,955.52
2023-02-14T02:09:22.644Z,955.53
2023-02-14T02:10:22.605Z,955.54
2023-02-14T02:11:22.584Z,955.59
2023-02-14T02:12:22.573Z,955.59
2023-02-14T02:13:22.573Z,955.58
2023-02-14T02:14:22.575Z,955.62
2023-02-14T02:15:22.572Z,955.58
2023-02-14T02:16:22.547Z,955.61
2023-02-14T02:17:22.524Z,955.58
2023-02-14T02:18:22.514Z,955.51
2023-02-14T02:19:22.529Z,955.52
2023-02-14T02:20:22.507Z,955.55
2023-02-14T02:21:22.493Z,955.56
2023-02-14T02:22:22.516Z,955.50
2023-02-14T02:23:22.471Z,955.52
2023-02-14T02:24:22.491Z,955.54
2023-02-14T02:25:22.444Z,955.48
2023-02-14T02:26:22.429Z,955.45
2023-02-14T02:27:22.424Z,955.49
2023-02-14T02:28:22.447Z,955.47
2023-02-14T02:29:22.411Z,955.52
2023-02-14T02:30:22.549Z,955.45
2023-02-14T02:31:22.558Z,955.45
2023-02-14T02:32:22.381Z,955.47
2023-02-14T02:33:22.376Z,955.42
2023-02-14T02:34:22.376Z,955.37
2023-02-14T02:35:22.347Z,955.39
2023-02-14T02:36:22.340Z,955.36
2023-02-14T02:37:22.331Z,955.38
2023-02-14T02:38:22.348Z,955.35
2023-02-14T02:39:22.327Z,955.29
2023-02-14T02:40:22.291Z,955.30
2023-02-14T02:41:22.295Z,955.28
2023-02-14T02:42:22.279Z,955.32
2023-02-14T02:43:22.325Z,955.34
2023-02-14T02:44:22.284Z,955.34
2023-02-14T02:45:22.257Z,955.34
2023-02-14T02:46:22.315Z,955.32
2023-02-14T02:47:22.380Z,955.31
2023-02-14T02:48:22.215Z,955.33
2023-02-14T02:49:22.229Z,955.27
2023-02-14T02:50:22.220Z,955.29
2023-02-14T02:51:22.192Z,955.23
2023-02-14T02:52:22.185Z,955.26
2023-02-14T02:53:22.170Z,955.25
2023-02-14T02:54:22.151Z,955.26
2023-02-14T02:55:22.160Z,955.30
2023-02-14T02:56:22.137Z,955.28
2023-02-14T02:57:22.121Z,955.31
2023-02-14T02:58:22.150Z,955.30
2023-02-14T02:59:22.113Z,955.31
2023-02-14T03:00:22.134Z,955.30
2023-02-14T03:01:22.162Z,955.31
2023-02-14T03:02:22.086Z,955.33
2023-02-14T03:03:22.110Z,955.28
2023-02-14T03:04:22.059Z,955.30
2023-02-14T03:05:22.077Z,955.29
2023-02-14T03:06:22.052Z,955.27
2023-02-14T03:07:22.061Z,955.30
2023-02-14T03:08:22.013Z,955.32
2023-02-14T03:09:22.005Z,955.33
2023-02-14T03:10:22.034Z,955.28
2023-02-14T03:11:22.013Z,955.27
2023-02-14T03:12:21.974Z,955.28
2023-02-14T03:13:21.965Z,955.29
2023-02-14T03:14:21.971Z,955.31
2023-02-14T03:15:22.007Z,955.29
2023-02-14T03:16:21.934Z,955.28
2023-02-14T03:17:21.943Z,955.28
2023-02-14T03:18:21.925Z,955.24
2023-02-14T03:19:21.952Z,955.22
2023-02-14T03:20:21.927Z,955.28
2023-02-14T03:21:21.889Z,955.23
2023-02-14T03:22:21.889Z,955.27
2023-02-14T03:23:21.931Z,955.23
2023-02-14T03:24:22.728Z,955.25
2023-02-14T03:25:21.850Z,955.34
2023-02-14T03:26:21.844Z,955.34
2023-02-14T03:27:21.857Z,955.40
2023-02-14T03:28:21.818Z,955.42
2023-02-14T03:29:21.828Z,955.46
2023-02-14T03:30:21.879Z,955.43
2023-02-14T03:31:21.880Z,955.48
2023-02-14T03:32:21.840Z,955.46
2023-02-14T03:33:21.782Z,955.46
2023-02-14T03:34:21.789Z,955.48
2023-02-14T03:35:21.796Z,955.54
2023-02-14T03:36:21.751Z,955.51
2023-02-14T03:37:21.732Z,955.50
2023-02-14T03:38:21.809Z,955.50
2023-02-14T03:39:21.707Z,955.50
2023-02-14T03:40:21.705Z,955.51
2023-02-14T03:41:21.749Z,955.53
2023-02-14T03:42:21.687Z,955.54
2023-02-14T03:43:21.708Z,955.55
2023-02-14T03:44:21.685Z,955.50
2023-02-14T03:45:21.773Z,955.55
2023-02-14T03:46:21.673Z,955.57
2023-02-14T03:47:21.633Z,955.52
2023-02-14T03:48:21.657Z,955.51
2023-02-14T03:49:21.638Z,955.51
2023-02-14T03:50:21.604Z,955.56
2023-02-14T03:51:21.613Z,955.56
2023-02-14T03:52:21.574Z,955.54
2023-02-14T03:53:21.579Z,955.56
2023-02-14T03:54:21.760Z,955.61
2023-02-14T03:55:21.554Z,955.60
2023-02-14T03:56:21.544Z,955.57
2023-02-14T03:57:21.536Z,955.59
2023-02-14T03:58:21.540Z,955.59
2023-02-14T03:59:21.532Z,955.57
2023-02-14T04:00:21.504Z,955.58
2023-02-14T04:01:21.532Z,955.61
2023-02-14T04:02:21.505Z,955.62
2023-02-14T04:03:21.515Z,955.63
2023-02-14T04:04:21.477Z,955.62
2023-02-14T04:05:21.449Z,955.66
2023-02-14T04:06:21.445Z,955.62
2023-02-14T04:07:21.487Z,955.63
2023-02-14T04:08:21.420Z,955.63
2023-02-14T04:09:21.466Z,955.62
2023-02-14T04:10:21.394Z,955.60
2023-02-14T04:11:22.977Z,955.65
2023-02-14T04:12:29.412Z,955.62
2023-02-14T04:13:22.370Z,955.64
2023-02-14T04:14:21.430Z,955.61
2023-02-14T04:15:21.427Z,955.63
2023-02-14T04:16:21.444Z,955.61
2023-02-14T04:17:21.364Z,955.61
2023-02-14T04:18:21.323Z,955.64
2023-02-14T04:19:21.343Z,955.63
2023-02-14T04:20:28.841Z,955.60
2023-02-14T04:21:21.330Z,955.62
2023-02-14T04:22:21.278Z,955.58
2023-02-14T04:23:21.318Z,955.62
2023-02-14T04:24:22.238Z,955.57
2023-02-14T04:25:21.307Z,955.59
2023-02-14T04:26:21.270Z,955.62
2023-02-14T04:27:21.240Z,955.58
2023-02-14T04:28:21.225Z,955.57
2023-02-14T04:29:21.250Z,955.60
2023-02-14T04:30:21.274Z,955.55
2023-02-14T04:31:21.428Z,955.61
2023-02-14T04:32:21.286Z,955.57
2023-02-14T04:33:21.209Z,955.58
2023-02-14T04:34:21.160Z,955.53
2023-02-14T04:35:21.153Z,955.52
2023-02-14T04:36:21.152Z,955.56
2023-02-14T04:37:21.143Z,955.51
2023-02-14T04:38:21.173Z,955.56
2023-02-14T04:39:21.135Z,955.54
2023-02-14T04:40:21.111Z,955.50
2023-02-14T04:41:21.090Z,955.49
2023-02-14T04:42:21.100Z,955.47
2023-02-14T04:43:21.073Z,955.41
2023-02-14T04:44:21.089Z,955.42
2023-02-14T04:45:21.053Z,955.41
2023-02-14T04:46:21.080Z,955.39
2023-02-14T04:47:21.130Z,955.39
2023-02-14T04:48:21.038Z,955.39
2023-02-14T04:49:21.061Z,955.38
2023-02-14T04:50:21.000Z,955.40
2023-02-14T04:51:20.991Z,955.37
2023-02-14T04:52:20.981Z,955.36
2023-02-14T04:53:20.995Z,955.37
2023-02-14T04:54:20.982Z,955.36
2023-02-14T04:55:20.989Z,955.41
2023-02-14T04:56:20.981Z,955.37
2023-02-14T04:57:20.973Z,955.38
2023-02-14T04:58:20.932Z,955.34
2023-02-14T04:59:21.325Z,955.38
2023-02-14T05:00:20.902Z,955.34
2023-02-14T05:01:20.984Z,955.35
2023-02-14T05:02:20.941Z,955.32
2023-02-14T05:03:20.917Z,955.36
2023-02-14T05:04:20.886Z,955.27
2023-02-14T05:05:20.866Z,955.29
2023-02-14T05:06:20.852Z,955.31
2023-02-14T05:07:20.836Z,955.36
2023-02-14T05:08:20.851Z,955.40
2023-02-14T05:09:20.813Z,955.40
2023-02-14T05:10:20.806Z,955.41
2023-02-14T05:11:20.829Z,955.41
2023-02-14T05:12:20.869Z,955.41
2023-02-14T05:13:20.817Z,955.43
2023-02-14T05:14:20.763Z,955.41
2023-02-14T05:15:20.758Z,955.39
2023-02-14T05:16:20.771Z,955.48
2023-02-14T05:17:25.306Z,955.43
2023-02-14T05:18:20.760Z,955.48
2023-02-14T05:19:20.758Z,955.43
2023-02-14T05:20:20.717Z,955.43
2023-02-14T05:21:20.701Z,955.42
2023-02-14T05:22:20.676Z,955.46
2023-02-14T05:23:20.670Z,955.40
2023-02-14T05:24:20.694Z,955.42
2023-02-14T05:25:20.678Z,955.39
2023-02-14T05:26:20.645Z,955.39
2023-02-14T05:27:20.687Z,955.41
2023-02-14T05:28:20.638Z,955.37
2023-02-14T05:29:20.716Z,955.34
2023-02-14T05:30:20.860Z,955.33
2023-02-14T05:31:20.676Z,955.32
2023-02-14T05:32:20.578Z,955.31
2023-02-14T05:33:20.567Z,955.28
2023-02-14T05:34:21.787Z,955.31
2023-02-14T05:35:20.545Z,955.31
2023-02-14T05:36:20.550Z,955.28
2023-02-14T05:37:20.537Z,955.26
2023-02-14T05:38:20.556Z,955.25
2023-02-14T05:39:20.568Z,955.27
2023-02-14T05:40:20.530Z,955.25
2023-02-14T05:41:20.508Z,955.29
2023-02-14T05:42:20.483Z,955.25
2023-02-14T05:43:20.509Z,955.22
2023-02-14T05:44:20.463Z,955.19
2023-02-14T05:45:20.515Z,955.24
2023-02-14T05:46:20.442Z,955.27
2023-02-14T05:47:20.434Z,955.23
2023-02-14T05:48:20.425Z,955.23
2023-02-14T05:49:20.406Z,955.22
2023-02-14T05:50:20.400Z,955.25
2023-02-14T05:51:20.436Z,955.28
2023-02-14T05:52:20.775Z,955.30
2023-02-14T05:53:20.370Z,955.30
2023-02-14T05:54:20.366Z,955.30
2023-02-14T05:55:20.354Z,955.31
2023-02-14T05:56:20.349Z,955.33
2023-02-14T05:57:20.348Z,955.27
2023-02-14T05:58:20.349Z,955.31
2023-02-14T05:59:20.333Z,955.35
2023-02-14T06:00:20.330Z,955.37
2023-02-14T06:01:20.291Z,955.37
2023-02-14T06:02:20.386Z,955.35
2023-02-14T06:03:20.292Z,955.31
2023-02-14T06:04:20.299Z,955.34
2023-02-14T06:05:20.265Z,955.33
2023-02-14T06:06:20.295Z,955.33
2023-02-14T06:07:20.229Z,955.33
2023-02-14T06:08:20.222Z,955.37
2023-02-14T06:09:20.207Z,955.38
2023-02-14T06:10:20.216Z,955.33
2023-02-14T06:11:20.225Z,955.36
2023-02-14T06:12:20.194Z,955.35
2023-02-14T06:13:20.265Z,955.29
2023-02-14T06:14:20.184Z,955.33
2023-02-14T06:15:20.182Z,955.34
2023-02-14T06:16:20.253Z,955.27
2023-02-14T06:17:20.203Z,955.34
2023-02-14T06:18:20.131Z,955.33
2023-02-14T06:19:20.125Z,955.39
2023-02-14T06:20:20.134Z,955.36
2023-02-14T06:21:20.138Z,955.36
2023-02-14T06:22:20.099Z,955.39
2023-02-14T06:23:20.123Z,955.38
2023-02-14T06:24:20.069Z,955.35
2023-02-14T06:25:20.052Z,955.35
2023-02-14T06:26:20.052Z,955.41
2023-02-14T06:27:20.100Z,955.38
2023-02-14T06:28:20.044Z,955.41
2023-02-14T06:29:20.039Z,955.43
2023-02-14T06:30:20.182Z,955.41
2023-02-14T06:31:20.156Z,955.44
2023-02-14T06:32:20.098Z,955.46
2023-02-14T06:33:19.980Z,955.39
2023-02-14T06:34:19.965Z,955.43
2023-02-14T06:35:19.951Z,955.46
2023-02-14T06:36:20.006Z,955.44
2023-02-14T06:37:19.930Z,955.45
2023-02-14T06:38:19.968Z,955.50
2023-02-14T06:39:19.964Z,955.46
2023-02-14T06:40:20.006Z,955.45
2023-02-14T06:41:19.993Z,955.49
2023-02-14T06:42:19.899Z,955.42
2023-02-14T06:43:19.877Z,955.43
2023-02-14T06:44:19.871Z,955.43
2023-02-14T06:45:19.852Z,955.43
2023-02-14T06:46:19.910Z,955.40
2023-02-14T06:47:20.000Z,955.38
2023-02-14T06:48:19.832Z,955.44
2023-02-14T06:49:19.838Z,955.41
2023-02-14T06:50:19.834Z,955.43
2023-02-14T06:51:19.812Z,955.41
2023-02-14T06:52:19.855Z,955.48
2023-02-14T06:53:19.802Z,955.45
2023-02-14T06:54:19.784Z,955.49
2023-02-14T06:55:19.774Z,955.41
2023-02-14T06:56:19.802Z,955.43
2023-02-14T06:57:19.736Z,955.45
2023-02-14T06:58:19.742Z,955.44
2023-02-14T06:59:19.736Z,955.43
2023-02-14T07:00:19.734Z,955.45
2023-02-14T07:01:19.758Z,955.44
2023-02-14T07:02:19.740Z,955.43
2023-02-14T07:03:19.695Z,955.43
2023-02-14T07:04:19.675Z,955.48
2023-02-14T07:05:19.707Z,955.47
2023-02-14T07:06:19.688Z,955.42
2023-02-14T07:07:19.639Z,955.44
2023-02-14T07:08:19.647Z,955.43
2023-02-14T07:09:19.638Z,955.51
2023-02-14T07:10:19.628Z,955.46
2023-02-14T07:11:19.625Z,955.44
2023-02-14T07:12:19.609Z,955.42
2023-02-14T07:13:19.604Z,955.46
2023-02-14T07:14:19.795Z,955.43
2023-02-14T07:15:19.607Z,955.44
2023-02-14T07:16:19.543Z,955.47
2023-02-14T07:17:19.676Z,955.44
2023-02-14T07:18:19.533Z,955.46
2023-02-14T07:19:19.574Z,955.41
2023-02-14T07:20:19.536Z,955.39
2023-02-14T07:21:19.508Z,955.34
2023-02-14T07:22:19.492Z,955.36
2023-02-14T07:23:19.491Z,955.29
2023-02-14T07:24:19.508Z,955.27
2023-02-14T07:25:19.457Z,955.28
2023-02-14T07:26:19.451Z,955.31
2023-02-14T07:27:19.480Z,955.27
2023-02-14T07:28:19.433Z,955.26
2023-02-14T07:29:20.260Z,955.18
2023-02-14T07:30:19.611Z,955.21
2023-02-14T07:31:19.473Z,955.21
2023-02-14T07:32:19.561Z,955.19
2023-02-14T07:33:19.368Z,955.22
2023-02-14T07:34:19.366Z,955.21
2023-02-14T07:35:19.395Z,955.27
2023-02-14T07:36:19.363Z,955.21
2023-02-14T07:37:19.356Z,955.17
2023-02-14T07:38:19.366Z,955.17
2023-02-14T07:39:19.389Z,955.21
2023-02-14T07:40:19.305Z,955.14
2023-02-14T07:41:19.305Z,955.15
2023-02-14T07:42:19.284Z,955.19
2023-02-14T07:43:20.237Z,955.15
2023-02-14T07:44:19.283Z,955.21
2023-02-14T07:45:22.058Z,955.18
2023-02-14T07:46:19.369Z,955.19
2023-02-14T07:47:19.283Z,955.20
2023-02-14T07:48:19.249Z,955.22
2023-02-14T07:49:19.297Z,955.22
2023-02-14T07:50:19.270Z,955.13
2023-02-14T07:51:19.223Z,955.18
2023-02-14T07:52:19.208Z,955.25
2023-02-14T07:53:19.198Z,955.24
2023-02-14T07:54:20.315Z,955.24
2023-02-14T07:55:19.147Z,955.21
2023-02-14T07:56:19.150Z,955.20
2023-02-14T07:57:19.136Z,955.22
2023-02-14T07:58:19.141Z,955.18
2023-02-14T07:59:19.165Z,955.12
2023-02-14T08:00:19.128Z,955.15
2023-02-14T08:01:19.197Z,955.15
2023-02-14T08:02:19.131Z,955.17
2023-02-14T08:03:19.086Z,955.11
2023-02-14T08:04:19.062Z,955.15
2023-02-14T08:05:19.175Z,955.16
2023-02-14T08:06:19.062Z,955.15
2023-02-14T08:07:19.047Z,955.10
2023-02-14T08:08:19.039Z,955.03
2023-02-14T08:09:19.039Z,954.95
2023-02-14T08:10:19.014Z,954.87
2023-02-14T08:11:19.021Z,954.82
2023-02-14T08:12:18.973Z,954.87
2023-02-14T08:13:18.961Z,954.80
2023-02-14T08:14:18.975Z,954.77
2023-02-14T08:15:18.937Z,954.78
2023-02-14T08:16:19.076Z,954.75
2023-02-14T08:17:18.921Z,954.76
2023-02-14T08:18:18.924Z,954.72
2023-02-14T08:19:18.920Z,954.76
2023-02-14T08:20:18.943Z,954.76
2023-02-14T08:21:18.927Z,954.66
2023-02-14T08:22:18.900Z,954.68
2023-02-14T08:23:18.906Z,954.70
2023-02-14T08:24:18.860Z,954.66
2023-02-14T08:25:18.839Z,954.61
2023-02-14T08:26:18.931Z,954.67
2023-02-14T08:27:18.808Z,954.66
2023-02-14T08:28:18.798Z,954.68
2023-02-14T08:29:18.797Z,954.65
2023-02-14T08:30:18.869Z,954.64
2023-02-14T08:31:30.036Z,954.62
2023-02-14T08:32:19.880Z,954.59
2023-02-14T08:33:18.755Z,954.57
2023-02-14T08:34:18.740Z,954.58
2023-02-14T08:35:18.739Z,954.52
2023-02-14T08:36:18.716Z,954.55
2023-02-14T08:37:18.721Z,954.54
2023-02-14T08:38:18.692Z,954.54
2023-02-14T08:39:18.695Z,954.52
2023-02-14T08:40:18.672Z,954.55
2023-02-14T08:41:18.692Z,954.53
2023-02-14T08:42:18.679Z,954.43
2023-02-14T08:43:18.635Z,954.51
2023-02-14T08:44:18.630Z,954.45
2023-02-14T08:45:18.625Z,954.46
2023-02-14T08:46:18.725Z,954.44
2023-02-14T08:47:18.620Z,954.37
2023-02-14T08:48:18.617Z,954.34
2023-02-14T08:49:18.571Z,954.34
2023-02-14T08:50:18.599Z,954.36
2023-02-14T08:51:18.564Z,954.35
2023-02-14T08:52:18.575Z,954.35
2023-02-14T08:53:18.610Z,954.31
2023-02-14T08:54:18.516Z,954.29
2023-02-14T08:55:18.581Z,954.36
2023-02-14T08:56:18.491Z,954.33
2023-02-14T08:57:18.536Z,954.32
2023-02-14T08:58:18.494Z,954.33
2023-02-14T08:59:18.484Z,954.32
2023-02-14T09:00:18.475Z,954.36
2023-02-14T09:01:18.519Z,954.31
2023-02-14T09:02:18.432Z,954.26
2023-02-14T09:03:18.452Z,954.25
2023-02-14T09:04:18.499Z,954.21
2023-02-14T09:05:18.432Z,954.22
2023-02-14T09:06:18.416Z,954.18
2023-02-14T09:07:18.385Z,954.18
2023-02-14T09:08:18.426Z,954.15
2023-02-14T09:09:18.404Z,954.12
2023-02-14T09:10:18.368Z,954.17
2023-02-14T09:11:18.428Z,954.10
2023-02-14T09:12:18.332Z,954.12
2023-02-14T09:13:18.320Z,954.16
2023-02-14T09:14:20.360Z,954.09
2023-02-14T09:15:18.357Z,954.11
2023-02-14T09:16:18.454Z,954.06
2023-02-14T09:17:18.778Z,954.07
2023-02-14T09:18:18.302Z,954.06
2023-02-14T09:19:18.280Z,954.00
2023-02-14T09:20:18.356Z,954.05
2023-02-14T09:21:25.876Z,954.05
2023-02-14T09:22:18.290Z,954.01
2023-02-14T09:23:18.207Z,953.97
2023-02-14T09:24:18.213Z,953.97
2023-02-14T09:25:18.200Z,954.00
2023-02-14T09:26:18.199Z,953.99
2023-02-14T09:27:18.252Z,954.06
2023-02-14T09:28:18.175Z,954.00
2023-02-14T09:29:18.147Z,954.01
2023-02-14T09:30:18.304Z,954.05
2023-02-14T09:31:18.262Z,954.00
2023-02-14T09:32:18.147Z,954.04
2023-02-14T09:33:18.140Z,953.98
2023-02-14T09:34:18.115Z,954.01
2023-02-14T09:35:18.089Z,954.06
2023-02-14T09:36:18.189Z,954.05
2023-02-14T09:37:18.136Z,954.04
2023-02-14T09:38:18.088Z,954.01
2023-02-14T09:39:18.057Z,953.96
2023-02-14T09:40:18.047Z,953.92
2023-02-14T09:41:18.066Z,953.92
2023-02-14T09:42:18.030Z,953.92
2023-02-14T09:43:18.023Z,953.95
2023-02-14T09:44:18.038Z,953.94
2023-02-14T09:45:18.896Z,953.96
2023-02-14T09:46:18.076Z,953.95
2023-02-14T09:47:17.958Z,953.93
2023-02-14T09:48:17.990Z,953.91
2023-02-14T09:49:18.080Z,953.92
2023-02-14T09:50:17.933Z,953.89
2023-02-14T09:51:17.932Z,953.93
2023-02-14T09:52:17.962Z,953.87
2023-02-14T09:53:17.919Z,953.86
2023-02-14T09:54:18.012Z,953.87
2023-02-14T09:55:17.942Z,953.84
2023-02-14T09:56:18.371Z,953.88
2023-02-14T09:57:17.860Z,953.84
2023-02-14T09:58:18.830Z,953.81
2023-02-14T09:59:17.867Z,953.92
2023-02-14T10:00:17.881Z,953.86
2023-02-14T10:01:17.952Z,953.83
2023-02-14T10:02:18.001Z,953.82
2023-02-14T10:03:17.808Z,953.79
2023-02-14T10:04:17.873Z,953.82
2023-02-14T10:05:17.925Z,953.80
2023-02-14T10:06:17.797Z,953.80
2023-02-14T10:07:17.756Z,953.79
2023-02-14T10:08:17.765Z,953.84
2023-02-14T10:09:17.752Z,953.82
2023-02-14T10:10:17.736Z,953.80
2023-02-14T10:11:17.736Z,953.85
2023-02-14T10:12:17.724Z,953.83
2023-02-14T10:13:17.732Z,953.81
2023-02-14T10:14:17.688Z,953.75
2023-02-14T10:15:17.837Z,953.70
2023-02-14T10:16:17.717Z,953.68
2023-02-14T10:17:17.651Z,953.67
2023-02-14T10:18:17.790Z,953.70
2023-02-14T10:19:17.656Z,953.69
2023-02-14T10:20:17.627Z,953.64
2023-02-14T10:21:17.657Z,953.67
2023-02-14T10:22:17.620Z,953.61
2023-02-14T10:23:17.596Z,953.56
2023-02-14T10:24:17.648Z,953.58
2023-02-14T10:25:17.638Z,953.57
2023-02-14T10:26:17.562Z,953.55
2023-02-14T10:27:17.598Z,953.49
2023-02-14T10:28:17.543Z,953.50
2023-02-14T10:29:17.526Z,953.53
2023-02-14T10:30:17.640Z,953.49
2023-02-14T10:31:17.727Z,953.44
2023-02-14T10:32:17.589Z,953.41
2023-02-14T10:33:17.489Z,953.41
2023-02-14T10:34:17.485Z,953.40
2023-02-14T10:35:17.490Z,953.35
2023-02-14T10:36:17.467Z,953.32
2023-02-14T10:37:17.629Z,953.30
2023-02-14T10:38:17.442Z,953.26
2023-02-14T10:39:17.456Z,953.21
2023-02-14T10:40:17.661Z,953.21
2023-02-14T10:41:17.439Z,953.18
2023-02-14T10:42:17.414Z,953.19
2023-02-14T10:43:17.543Z,953.19
2023-02-14T10:44:17.394Z,953.18
2023-02-14T10:45:17.403Z,953.11
2023-02-14T10:46:18.287Z,953.12
2023-02-14T10:47:17.360Z,953.11
2023-02-14T10:48:17.383Z,953.11
2023-02-14T10:49:17.349Z,953.09
2023-02-14T10:50:17.380Z,953.08
2023-02-14T10:51:17.381Z,953.07
2023-02-14T10:52:17.306Z,953.06
2023-02-14T10:53:17.294Z,953.03
2023-02-14T10:54:17.278Z,953.05
2023-02-14T10:55:31.424Z,953.02
2023-02-14T10:56:18.284Z,953.02
2023-02-14T10:57:17.271Z,952.96
2023-02-14T10:58:17.246Z,952.97
2023-02-14T10:59:17.272Z,952.95
2023-02-14T11:00:17.291Z,952.95
2023-02-14T11:01:17.475Z,952.91
2023-02-14T11:02:17.215Z,952.89
2023-02-14T11:03:17.256Z,952.88
2023-02-14T11:04:17.212Z,952.84
2023-02-14T11:05:17.183Z,952.83
2023-02-14T11:06:17.227Z,952.75
2023-02-14T11:07:17.205Z,952.73
2023-02-14T11:08:17.156Z,952.75
2023-02-14T11:09:17.141Z,952.68
2023-02-14T11:10:17.143Z,952.67
2023-02-14T11:11:17.411Z,952.66
2023-02-14T11:12:17.171Z,952.66
2023-02-14T11:13:18.882Z,952.60
2023-02-14T11:14:17.432Z,952.64
2023-02-14T11:15:17.148Z,952.60
2023-02-14T11:16:17.112Z,952.63
2023-02-14T11:17:20.922Z,952.55
2023-02-14T11:18:17.063Z,952.54
2023-02-14T11:19:17.146Z,952.55
2023-02-14T11:20:17.090Z,952.46
2023-02-14T11:21:17.032Z,952.45
2023-02-14T11:22:17.093Z,952.45
2023-02-14T11:23:18.959Z,952.45
2023-02-14T11:24:17.024Z,952.43
2023-02-14T11:25:17.894Z,952.39
2023-02-14T11:26:17.028Z,952.38
2023-02-14T11:27:16.961Z,952.36
2023-02-14T11:28:16.999Z,952.34
2023-02-14T11:29:16.985Z,952.35
2023-02-14T11:30:16.970Z,952.38
2023-02-14T11:31:17.087Z,952.37
2023-02-14T11:32:16.942Z,952.40
2023-02-14T11:33:16.924Z,952.33
2023-02-14T11:34:16.988Z,952.34
2023-02-14T11:35:16.892Z,952.32
2023-02-14T11:36:16.876Z,952.31
2023-02-14T11:37:16.862Z,952.29
2023-02-14T11:38:16.892Z,952.33
2023-02-14T11:39:16.850Z,952.34
2023-02-14T11:40:16.883Z,952.30
2023-02-14T11:41:16.823Z,952.32
2023-02-14T11:42:16.808Z,952.33
2023-02-14T11:43:16.801Z,952.27
2023-02-14T11:44:16.798Z,952.29
2023-02-14T11:45:16.805Z,952.30
2023-02-14T11:46:16.884Z,952.28
2023-02-14T11:47:16.787Z,952.26
2023-02-14T11:48:19.977Z,952.23
2023-02-14T11:49:17.773Z,952.24
2023-02-14T11:50:16.735Z,952.24
2023-02-14T11:51:16.764Z,952.25
2023-02-14T11:52:16.758Z,952.21
2023-02-14T11:53:16.733Z,952.23
2023-02-14T11:54:16.689Z,952.22
2023-02-14T11:55:16.687Z,952.22
2023-02-14T11:56:16.704Z,952.22
2023-02-14T11:57:16.713Z,952.20
2023-02-14T11:58:16.803Z,952.19
2023-02-14T11:59:16.716Z,952.16
2023-02-14T12:00:16.674Z,952.18
2023-02-14T12:01:16.658Z,952.14
2023-02-14T12:02:16.660Z,952.14
2023-02-14T12:03:17.482Z,952.10
2023-02-14T12:04:16.619Z,952.12
2023-02-14T12:05:16.623Z,952.10
2023-02-14T12:06:16.631Z,952.08
2023-02-14T12:07:16.599Z,952.05
2023-02-14T12:08:17.409Z,952.04
2023-02-14T12:09:16.552Z,952.03
2023-02-14T12:10:16.599Z,952.06
2023-02-14T12:11:16.565Z,952.05
2023-02-14T12:12:16.545Z,952.01
2023-02-14T12:13:16.559Z,952.04
2023-02-14T12:14:16.533Z,952.03
2023-02-14T12:15:16.509Z,952.04
2023-02-14T12:16:16.508Z,952.02
2023-02-14T12:17:16.476Z,951.99
2023-02-14T12:18:16.529Z,951.99
2023-02-14T12:19:16.481Z,951.98
2023-02-14T12:20:16.435Z,951.91
2023-02-14T12:21:16.472Z,951.91
2023-02-14T12:22:16.445Z,951.91
2023-02-14T12:23:16.448Z,951.92
2023-02-14T12:24:16.427Z,951.92
2023-02-14T12:25:16.416Z,951.91
2023-02-14T12:26:16.389Z,951.90
2023-02-14T12:27:17.032Z,951.88
2023-02-14T12:28:16.370Z,951.87